Tonopah, Nevada Weather observations

Data are for observation ending at time listed.
 Day   Time    Ave.   Ave.  Ave.  Vector   Max.   Stn.    Total    Solar   Ave.  
  of    of     Air    Rel.  Wind   Wind    Wind   Baro.  Precip.   Rad.    Soil  
Year   Day     Temp.  Hum.  Speed  Dir.    Gust   Pres.                    Temp. 
2017   (PST)    F      %     mph   deg.    mph     mb.     in.     W/m2     F   
------------------------------------------------------------------------------
  35   20:30   35.5    86    4.9   134      7.5   812.3    0.00       0    35.4
  35   20:40   35.2    87    4.8   136      6.9   812.4    0.00       0    35.4
  35   20:50   35.2    87    5.3   141      7.6   812.6    0.00       0    35.3
  35   21:00   35.3    86    4.6   128      6.2   812.7    0.00       0    35.2
  35   21:10   35.0    87    4.7   128      6.7   812.7    0.00       0    35.1
  35   21:20   34.5    88    4.4   119      6.1   812.7    0.00       0    35.0
  35   21:30   35.2    88    4.7   132      6.7   812.8    0.00       0    34.9
  35   21:40   35.1    87    4.5   119      6.6   812.8    0.00       0    34.8
  35   21:50   35.5    88    4.3   126      6.0   812.9    0.00       0    34.8
  35   22:00   35.2    87    4.2   108      6.6   812.9    0.00       0    34.7
  35   22:10   34.3    89    4.2   106      6.3   812.9    0.00       0    34.6
  35   22:20   34.0    90    4.1   110      6.1   812.9    0.00       0    34.6
  35   22:30   34.7    89    4.2   129      5.4   812.9    0.00       0    34.5
  35   22:40   33.9    89    3.8   107      5.8   812.8    0.00       0    34.4
  35   22:50   33.3    92    4.5   133      7.0   812.8    0.00       0    34.4
  35   23:00   34.0    91    4.2   136      5.8   812.8    0.00       0    34.3
  35   23:10   34.1    90    3.8   127      5.4   812.8    0.00       0    34.2
  35   23:20   34.1    90    4.1   140      6.3   812.8    0.00       0    34.2
  35   23:30   34.3    90    4.0   140      5.3   813.0    0.00       0    34.1
  35   23:40   34.4    90    5.0   140      6.6   813.0    0.00       0    34.1
  35   23:50   34.7    89    5.3   137      7.7   812.8    0.00       0    34.0
  36    0:00   34.7    90    4.5   135      7.3   812.8    0.00       0    34.0
  36    0:10   34.8    89    4.2   131      8.3   812.8    0.00       0    33.9
  36    0:20   34.3    90    3.9   148      6.9   812.9    0.00       0    33.9
  36    0:30   34.1    91    3.5   128      5.8   812.8    0.00       0    33.9
  36    0:40   33.6    91    4.8   145      7.5   812.8    0.00       0    33.8
  36    0:50   33.5    91    4.5   139      6.9   812.7    0.00       0    33.8
  36    1:00   33.5    92    4.1   122      6.1   812.7    0.00       0    33.7
  36    1:10   33.8    91    3.7   134      6.2   812.7    0.00       0    33.7
  36    1:20   34.1    92    4.3   113      9.2   812.7    0.00       0    33.7
  36    1:30   33.7    92    5.2   134      8.2   812.7    0.00       0    33.6
  36    1:40   33.6    92    4.2   134      6.9   812.6    0.00       0    33.6
  36    1:50   33.6    92    4.2   127      6.4   812.5    0.00       0    33.6
  36    2:00   34.4    91    4.6    78      8.6   812.5    0.00       0    33.5
  36    2:10   34.8    90    5.3    98      9.5   812.5    0.00       0    33.5
  36    2:20   34.5    90    3.2   103      6.4   812.6    0.00       0    33.5
  36    2:30   34.4    90    3.6    95      6.5   812.5    0.00       0    33.4
  36    2:40   34.4    90    3.7   102      6.7   812.5    0.00       0    33.4
  36    2:50   33.9    91    4.8   142      7.0   812.4    0.00       0    33.4
  36    3:00   33.9    91    4.4   144      7.5   812.3    0.00       0    33.4
  36    3:10   33.3    92    4.1   158      6.1   812.3    0.00       0    33.3
  36    3:20   33.5    93    3.9   134      5.8   812.2    0.00       0    33.3
  36    3:30   33.7    92    4.0   154      5.5   812.0    0.00       0    33.3
  36    3:40   33.7    92    4.2   164      6.1   812.0    0.00       0    33.3
  36    3:50   33.3    92    4.2   149      5.8   811.8    0.00       0    33.2
  36    4:00   33.3    92    5.0   158      7.1   811.9    0.00       0    33.2
  36    4:10   33.3    92    6.0   156      8.0   811.8    0.00       0    33.2
  36    4:20   33.2    93    3.5   113      6.8   811.6    0.00       0    33.2
  36    4:30   33.7    92    4.4   106      7.3   811.4    0.00       0    33.2
  36    4:40   33.8    92    4.0    96      6.9   811.4    0.00       0    33.1
  36    4:50   33.7    92    3.8   102      7.6   811.3    0.00       0    33.1
  36    5:00   33.8    92    3.9   109      8.7   811.3    0.00       0    33.1
  36    5:10   33.2    92    2.8   112      5.8   811.4    0.00       0    33.1
  36    5:20   33.3    93    3.5    98      8.9   811.4    0.00       1    33.1
  36    5:30   33.3    92    4.6   141      7.1   811.4    0.00       0    33.0
  36    5:40   33.7    92    4.1   121      6.6   811.4    0.00       0    33.0
  36    5:50   33.1    92    3.4   100      5.3   811.4    0.00       0    33.0
  36    6:00   33.0    92    2.8   114      4.2   811.4    0.00       1    33.0
  36    6:10   33.2    93    2.9   102      5.0   811.2    0.00       0    33.0
  36    6:20   33.6    92    3.9    96      7.1   811.2    0.00       1    33.0
  36    6:30   33.7    92    5.1    87      8.6   811.0    0.00       0    33.0
  36    6:40   33.4    92    5.0   136      8.4   811.0    0.00       1    33.0
  36    6:50   32.8    93    5.4   143      8.1   811.2    0.00       4    32.9
  36    7:00   33.0    93    4.7   122      7.5   811.3    0.00       4    32.9
  36    7:10   33.1    92    5.6   115      8.9   811.2    0.00       6    32.9
  36    7:20   32.9    92    6.5   118     10.6   811.2    0.00      14    32.9
  36    7:30   32.9    93    8.0   114     12.1   811.3    0.00      25    32.9
  36    7:40   33.1    92    7.8   117     11.3   811.3    0.00      39    32.9
  36    7:50   33.0    93    7.4   117     10.9   811.5    0.00      66    32.9
  36    8:00   33.3    92    5.8   109     10.7   811.7    0.00      94    32.9
  36    8:10   34.1    92    5.6   111     10.3   811.6    0.00     126    32.9
  36    8:20   34.8    90    5.8   114     10.4   811.7    0.00     148    32.9
  36    8:30   35.0    89    5.2   122      7.5   811.8    0.00     190    32.9
  36    8:40   35.2    89    5.3   114      8.3   812.0    0.00     194    32.9
  36    8:50   35.5    88    4.9   116      8.8   811.9    0.00     232    32.9
  36    9:00   36.6    87    5.3   119     10.5   811.9    0.00     357    32.9
  36    9:10   37.4    85    5.9   126      9.9   812.0    0.00     280    32.9
  36    9:20   36.5    87    6.7   121     11.8   812.0    0.00     197    32.9
  36    9:30   36.0    89    6.2   116     10.3   811.9    0.00     238    32.9
  36    9:40   36.0    88    6.6   119     10.9   811.9    0.00     264    32.9
  36    9:50   36.3    88    7.0    99     11.0   811.7    0.00     374    32.9
  36   10:00   36.1    87    8.7    89     13.7   811.5    0.00     259    32.8
  36   10:10   35.8    88    8.7    84     12.4   811.5    0.00     399    32.8
  36   10:20   36.8    86    8.8    82     15.6   811.4    0.00     505    32.8
  36   10:30   37.2    85    9.0    83     15.2   811.3    0.00     647    32.9
  36   10:40   37.6    84    8.0   101     13.4   811.4    0.00     369    32.9
  36   10:50   36.7    86    8.3    97     14.0   811.5    0.00     310    33.0
  36   11:00   36.7    86    7.7    99     13.4   811.6    0.00     307    33.2
  36   11:10   37.0    85    8.3    97     13.2   811.3    0.00     361    33.3
  36   11:20   37.3    85    8.2    94     13.5   811.1    0.00     344    33.5
  36   11:30   37.4    84    8.0    90     16.7   811.0    0.00     284    33.7
  36   11:40   37.5    84    8.5    87     13.5   810.6    0.00     248    33.9
  36   11:50   37.4    84   10.2    89     15.9   810.3    0.00     220    34.0
  36   12:00   37.7    84    8.5    94     15.1   810.0    0.00     228    34.2
  36   12:10   37.8    84    7.8    98     14.4   809.8    0.00     239    34.3
  36   12:20   38.0    84    7.8   102     14.1   809.6    0.00     259    34.5
  36   12:30   38.2    84    8.4   123     15.2   809.3    0.00     277    34.6
  36   12:40   38.6    82   10.9   134     17.0   809.0    0.00     319    34.7
  36   12:50   39.2    81    9.4   130     15.2   808.9    0.00     332    34.8
  36   13:00   39.2    82    9.1    96     14.4   808.8    0.00     307    35.0
  36   13:10   39.1    83    9.6    84     14.9   808.6    0.00     280    35.1
  36   13:20   39.3    82    9.9    92     15.6   808.3    0.00     249    35.2
  36   13:30   39.5    82    8.2    88     12.9   808.3    0.00     223    35.3
  36   13:40   40.1    80    7.5   104     13.1   808.1    0.00     237    35.5
  36   13:50   40.9    78    6.6   126     10.5   808.1    0.00     240    35.6
  36   14:00   41.3    75    7.8   127     13.1   807.9    0.00     255    35.7
  36   14:10   41.6    72    8.1   124     13.7   807.7    0.00     227    35.8
  36   14:20   41.5    69    9.1   121     15.4   807.6    0.00     191    36.0
  36   14:30   41.9    69    6.9   127     12.3   807.7    0.00     211    36.1
  36   14:40   42.4    67    8.5   133     15.4   807.6    0.00     317    36.2
  36   14:50   42.6    64    9.8   138     14.8   807.6    0.00     273    36.3
  36   15:00   42.8    66   10.2   144     14.6   807.6    0.00     288    36.4
  36   15:10   42.7    65   11.0   153     15.0   807.5    0.00     269    36.5
  36   15:20   42.1    67   10.0   151     17.2   807.4    0.00     135    36.6
  36   15:30   41.6    69    9.2   141     14.0   807.4    0.00     100    36.7
  36   15:40   41.6    66   10.4   136     16.1   807.3    0.00      91    36.8
  36   15:50   41.4    67   10.2   137     15.5   807.2    0.00      73    36.9
  36   16:00   41.3    68    8.1   134     13.5   807.3    0.00      68    37.0
  36   16:10   41.2    69    7.8   131     12.9   807.2    0.00      67    37.0
  36   16:20   41.1    70    7.6   130     13.8   807.2    0.00      67    37.1
  36   16:30   41.0    70    7.6   130     16.1   807.1    0.00      49    37.1
  36   16:40   40.7    71    8.3   130     13.7   807.1    0.00      35    37.1
  36   16:50   40.5    72    7.5   131     13.4   806.9    0.00      38    37.0
  36   17:00   40.3    72    9.5   133     16.7   806.7    0.00      27    37.0
  36   17:10   40.0    74    9.6   130     15.6   806.6    0.00      17    37.0
  36   17:20   39.7    76    9.5   134     16.1   806.5    0.00      12    37.0
  36   17:30   39.6    75    9.2   134     13.7   806.4    0.00       1    36.9
  36   17:40   39.5    75   11.0   137     18.3   806.3    0.00       0    36.9
  36   17:50   39.2    77    9.0   131     14.5   806.3    0.00       0    36.9
  36   18:00   39.1    77    9.0   129     15.7   806.4    0.00       0    36.8
  36   18:10   38.9    78    9.9   134     17.0   806.3    0.00       0    36.7
  36   18:20   38.8    77   10.6   135     16.5   806.2    0.00       0    36.7
  36   18:30   38.9    76   11.1   135     16.7   806.1    0.00       0    36.6
  36   18:40   38.4    77    9.6   134     15.3   806.2    0.00       0    36.5
  36   18:50   37.8    79    7.9   129     12.9   806.0    0.00       0    36.5
  36   19:00   37.2    81    5.5   125      9.6   805.9    0.00       0    36.4
  36   19:10   37.3    80    6.7   126     13.4   806.0    0.00       0    36.3
  36   19:20   37.7    79    6.9   126     14.3   806.0    0.00       0    36.2
  36   19:30   37.6    78    6.3   112     11.6   806.0    0.00       0    36.1
  36   19:40   37.6    78    8.0   128     17.2   805.8    0.00       0    36.0
  36   19:50   37.9    78   12.5   141     25.1   805.6    0.00       0    36.0
  36   20:00   38.0    80   12.8   134     21.1   805.5    0.00       0    35.9
  36   20:10   37.6    82   13.2   139     27.0   805.4    0.00       0    35.8
  36   20:20   37.5    83   13.9   143     24.3   805.3    0.00       0    35.8

Return to Tonopah, Nevada graphs page.


Western Regional Climate Center,wrcc@dri.edu